sensor_id;sensor_type;location;lat;lon;timestamp;temperature;humidity
34095;DHT22;20372;47.080;15.410;2023-05-07T00:00:33;14.50;99.90
34095;DHT22;20372;47.080;15.410;2023-05-07T00:02:59;14.50;99.90
34095;DHT22;20372;47.080;15.410;2023-05-07T00:05:26;14.60;99.90
34095;DHT22;20372;47.080;15.410;2023-05-07T00:07:52;14.50;99.90
34095;DHT22;20372;47.080;15.410;2023-05-07T00:10:20;14.50;99.90
34095;DHT22;20372;47.080;15.410;2023-05-07T00:12:46;14.60;99.90
34095;DHT22;20372;47.080;15.410;2023-05-07T00:15:11;14.60;99.90
34095;DHT22;20372;47.080;15.410;2023-05-07T00:17:37;14.50;99.90
34095;DHT22;20372;47.080;15.410;2023-05-07T00:20:03;14.50;99.90
34095;DHT22;20372;47.080;15.410;2023-05-07T00:22:30;14.40;99.90
34095;DHT22;20372;47.080;15.410;2023-05-07T00:24:56;14.30;99.90
34095;DHT22;20372;47.080;15.410;2023-05-07T00:27:22;14.40;99.90
34095;DHT22;20372;47.080;15.410;2023-05-07T00:29:48;14.40;99.90
34095;DHT22;20372;47.080;15.410;2023-05-07T00:32:13;14.30;99.90
34095;DHT22;20372;47.080;15.410;2023-05-07T00:34:40;14.30;99.90
34095;DHT22;20372;47.080;15.410;2023-05-07T00:37:05;14.40;99.90
34095;DHT22;20372;47.080;15.410;2023-05-07T00:39:33;14.70;99.90
34095;DHT22;20372;47.080;15.410;2023-05-07T00:41:58;14.70;99.90
34095;DHT22;20372;47.080;15.410;2023-05-07T00:44:25;14.60;99.90
34095;DHT22;20372;47.080;15.410;2023-05-07T00:46:51;14.70;99.90
34095;DHT22;20372;47.080;15.410;2023-05-07T00:49:17;14.80;99.90
34095;DHT22;20372;47.080;15.410;2023-05-07T00:51:43;14.70;99.90
34095;DHT22;20372;47.080;15.410;2023-05-07T00:54:10;14.60;99.90
34095;DHT22;20372;47.080;15.410;2023-05-07T00:56:36;14.50;99.90
34095;DHT22;20372;47.080;15.410;2023-05-07T00:59:02;14.40;99.90
34095;DHT22;20372;47.080;15.410;2023-05-07T01:01:28;14.40;99.90
34095;DHT22;20372;47.080;15.410;2023-05-07T01:03:54;14.40;99.90
34095;DHT22;20372;47.080;15.410;2023-05-07T01:06:20;14.40;99.90
34095;DHT22;20372;47.080;15.410;2023-05-07T01:08:47;14.30;99.90
34095;DHT22;20372;47.080;15.410;2023-05-07T01:11:16;14.40;99.90
34095;DHT22;20372;47.080;15.410;2023-05-07T01:13:42;14.50;99.90
34095;DHT22;20372;47.080;15.410;2023-05-07T01:16:08;14.50;99.90
34095;DHT22;20372;47.080;15.410;2023-05-07T01:18:34;14.60;99.90
34095;DHT22;20372;47.080;15.410;2023-05-07T01:21:00;14.50;99.90
34095;DHT22;20372;47.080;15.410;2023-05-07T01:23:27;14.50;99.90
34095;DHT22;20372;47.080;15.410;2023-05-07T01:25:53;14.40;99.90
34095;DHT22;20372;47.080;15.410;2023-05-07T01:28:19;14.40;99.90
34095;DHT22;20372;47.080;15.410;2023-05-07T01:30:46;14.40;99.90
34095;DHT22;20372;47.080;15.410;2023-05-07T01:33:13;14.30;99.90
34095;DHT22;20372;47.080;15.410;2023-05-07T01:35:41;14.40;99.90
34095;DHT22;20372;47.080;15.410;2023-05-07T01:38:09;14.50;99.90
34095;DHT22;20372;47.080;15.410;2023-05-07T01:40:34;14.40;99.90
34095;DHT22;20372;47.080;15.410;2023-05-07T01:43:01;14.30;99.90
34095;DHT22;20372;47.080;15.410;2023-05-07T01:45:27;14.30;99.90
34095;DHT22;20372;47.080;15.410;2023-05-07T01:47:53;14.20;99.90
34095;DHT22;20372;47.080;15.410;2023-05-07T01:50:18;14.20;99.90
34095;DHT22;20372;47.080;15.410;2023-05-07T01:52:44;14.20;99.90
34095;DHT22;20372;47.080;15.410;2023-05-07T01:55:10;14.20;99.90
34095;DHT22;20372;47.080;15.410;2023-05-07T01:57:36;14.20;99.90
34095;DHT22;20372;47.080;15.410;2023-05-07T02:00:01;14.30;99.90
34095;DHT22;20372;47.080;15.410;2023-05-07T02:02:31;14.30;99.90
34095;DHT22;20372;47.080;15.410;2023-05-07T02:04:57;14.30;99.90
34095;DHT22;20372;47.080;15.410;2023-05-07T02:07:22;14.30;99.90
34095;DHT22;20372;47.080;15.410;2023-05-07T02:09:48;14.20;99.90
34095;DHT22;20372;47.080;15.410;2023-05-07T02:12:13;14.20;99.90
34095;DHT22;20372;47.080;15.410;2023-05-07T02:14:39;14.20;99.90
34095;DHT22;20372;47.080;15.410;2023-05-07T02:17:04;14.20;99.90
34095;DHT22;20372;47.080;15.410;2023-05-07T02:19:30;14.20;99.90
34095;DHT22;20372;47.080;15.410;2023-05-07T02:21:56;14.00;99.90
34095;DHT22;20372;47.080;15.410;2023-05-07T02:24:21;14.00;99.90
34095;DHT22;20372;47.080;15.410;2023-05-07T02:26:47;14.00;99.90
34095;DHT22;20372;47.080;15.410;2023-05-07T02:29:12;13.80;99.90
34095;DHT22;20372;47.080;15.410;2023-05-07T02:31:38;13.60;99.90
34095;DHT22;20372;47.080;15.410;2023-05-07T02:34:04;13.50;99.90
34095;DHT22;20372;47.080;15.410;2023-05-07T02:36:29;13.40;99.90
34095;DHT22;20372;47.080;15.410;2023-05-07T02:38:55;13.30;99.90
34095;DHT22;20372;47.080;15.410;2023-05-07T02:41:21;13.30;99.90
34095;DHT22;20372;47.080;15.410;2023-05-07T02:43:46;13.20;99.90
34095;DHT22;20372;47.080;15.410;2023-05-07T02:46:12;13.10;99.90
34095;DHT22;20372;47.080;15.410;2023-05-07T02:48:37;13.00;99.90
34095;DHT22;20372;47.080;15.410;2023-05-07T02:51:03;13.00;99.90
34095;DHT22;20372;47.080;15.410;2023-05-07T02:53:29;13.00;99.90
34095;DHT22;20372;47.080;15.410;2023-05-07T02:55:55;13.00;99.90
34095;DHT22;20372;47.080;15.410;2023-05-07T02:58:21;13.00;99.90
34095;DHT22;20372;47.080;15.410;2023-05-07T03:00:47;13.00;99.90
34095;DHT22;20372;47.080;15.410;2023-05-07T03:03:13;12.90;99.90
34095;DHT22;20372;47.080;15.410;2023-05-07T03:05:38;12.90;99.90
34095;DHT22;20372;47.080;15.410;2023-05-07T03:08:04;12.80;99.90
34095;DHT22;20372;47.080;15.410;2023-05-07T03:10:30;13.00;99.90
34095;DHT22;20372;47.080;15.410;2023-05-07T03:12:56;13.10;99.90
34095;DHT22;20372;47.080;15.410;2023-05-07T03:15:21;13.20;99.90
34095;DHT22;20372;47.080;15.410;2023-05-07T03:17:47;13.10;99.90
34095;DHT22;20372;47.080;15.410;2023-05-07T03:20:13;13.00;99.90
34095;DHT22;20372;47.080;15.410;2023-05-07T03:22:38;12.90;99.90
34095;DHT22;20372;47.080;15.410;2023-05-07T03:25:04;12.80;99.90
34095;DHT22;20372;47.080;15.410;2023-05-07T03:27:30;12.70;99.90
34095;DHT22;20372;47.080;15.410;2023-05-07T03:29:56;12.70;99.90
34095;DHT22;20372;47.080;15.410;2023-05-07T03:32:21;12.70;99.90
34095;DHT22;20372;47.080;15.410;2023-05-07T03:34:47;12.60;99.90
34095;DHT22;20372;47.080;15.410;2023-05-07T03:37:13;12.70;99.90
34095;DHT22;20372;47.080;15.410;2023-05-07T03:39:38;12.70;99.90
34095;DHT22;20372;47.080;15.410;2023-05-07T03:42:04;12.60;99.90
34095;DHT22;20372;47.080;15.410;2023-05-07T03:44:29;12.70;99.90
34095;DHT22;20372;47.080;15.410;2023-05-07T03:46:55;12.70;99.90
34095;DHT22;20372;47.080;15.410;2023-05-07T03:49:21;12.70;99.90
34095;DHT22;20372;47.080;15.410;2023-05-07T03:51:46;12.70;99.90
34095;DHT22;20372;47.080;15.410;2023-05-07T03:54:12;12.70;99.90
34095;DHT22;20372;47.080;15.410;2023-05-07T03:56:37;12.70;99.90
34095;DHT22;20372;47.080;15.410;2023-05-07T03:59:03;12.80;99.90
34095;DHT22;20372;47.080;15.410;2023-05-07T04:01:29;12.80;99.90
34095;DHT22;20372;47.080;15.410;2023-05-07T04:03:55;12.80;99.90
34095;DHT22;20372;47.080;15.410;2023-05-07T04:06:20;12.90;99.90
34095;DHT22;20372;47.080;15.410;2023-05-07T04:08:46;13.00;99.90
34095;DHT22;20372;47.080;15.410;2023-05-07T04:11:11;13.10;99.90
34095;DHT22;20372;47.080;15.410;2023-05-07T04:13:37;13.20;99.90
34095;DHT22;20372;47.080;15.410;2023-05-07T04:16:03;13.20;99.90
34095;DHT22;20372;47.080;15.410;2023-05-07T04:18:29;13.10;99.90
34095;DHT22;20372;47.080;15.410;2023-05-07T04:20:54;13.10;99.90
34095;DHT22;20372;47.080;15.410;2023-05-07T04:23:20;12.90;99.90
34095;DHT22;20372;47.080;15.410;2023-05-07T04:25:46;12.90;99.90
34095;DHT22;20372;47.080;15.410;2023-05-07T04:28:11;12.90;99.90
34095;DHT22;20372;47.080;15.410;2023-05-07T04:30:38;12.80;99.90
34095;DHT22;20372;47.080;15.410;2023-05-07T04:33:03;12.90;99.90
34095;DHT22;20372;47.080;15.410;2023-05-07T04:35:29;13.00;99.90
34095;DHT22;20372;47.080;15.410;2023-05-07T04:37:55;13.00;99.90
34095;DHT22;20372;47.080;15.410;2023-05-07T04:40:20;13.20;99.90
34095;DHT22;20372;47.080;15.410;2023-05-07T04:42:46;13.10;99.90
34095;DHT22;20372;47.080;15.410;2023-05-07T04:45:12;13.20;99.90
34095;DHT22;20372;47.080;15.410;2023-05-07T04:47:38;13.10;99.90
34095;DHT22;20372;47.080;15.410;2023-05-07T04:50:04;13.20;99.90
34095;DHT22;20372;47.080;15.410;2023-05-07T04:52:30;13.30;99.90
34095;DHT22;20372;47.080;15.410;2023-05-07T04:54:58;13.20;99.90
34095;DHT22;20372;47.080;15.410;2023-05-07T04:57:24;13.40;99.90
34095;DHT22;20372;47.080;15.410;2023-05-07T04:59:50;13.80;99.90
34095;DHT22;20372;47.080;15.410;2023-05-07T05:02:16;15.30;99.90
34095;DHT22;20372;47.080;15.410;2023-05-07T05:04:41;16.30;99.90
34095;DHT22;20372;47.080;15.410;2023-05-07T05:07:07;18.00;99.90
34095;DHT22;20372;47.080;15.410;2023-05-07T05:09:33;18.50;99.90
34095;DHT22;20372;47.080;15.410;2023-05-07T05:11:58;17.80;99.90
34095;DHT22;20372;47.080;15.410;2023-05-07T05:14:24;17.10;99.90
34095;DHT22;20372;47.080;15.410;2023-05-07T05:16:50;17.50;99.90
34095;DHT22;20372;47.080;15.410;2023-05-07T05:19:15;17.30;99.90
34095;DHT22;20372;47.080;15.410;2023-05-07T05:21:41;16.70;99.90
34095;DHT22;20372;47.080;15.410;2023-05-07T05:24:07;16.10;99.90
34095;DHT22;20372;47.080;15.410;2023-05-07T05:26:33;15.70;99.90
34095;DHT22;20372;47.080;15.410;2023-05-07T05:28:58;15.40;99.90
34095;DHT22;20372;47.080;15.410;2023-05-07T05:31:24;15.20;99.90
34095;DHT22;20372;47.080;15.410;2023-05-07T05:33:50;15.10;99.90
34095;DHT22;20372;47.080;15.410;2023-05-07T05:36:15;15.20;99.90
34095;DHT22;20372;47.080;15.410;2023-05-07T05:38:41;15.10;99.90
34095;DHT22;20372;47.080;15.410;2023-05-07T05:41:07;14.60;99.90
34095;DHT22;20372;47.080;15.410;2023-05-07T05:43:32;14.40;99.90
34095;DHT22;20372;47.080;15.410;2023-05-07T05:45:58;14.50;99.90
34095;DHT22;20372;47.080;15.410;2023-05-07T05:48:24;14.70;99.90
34095;DHT22;20372;47.080;15.410;2023-05-07T05:50:50;14.50;99.90
34095;DHT22;20372;47.080;15.410;2023-05-07T05:53:15;14.40;99.90
34095;DHT22;20372;47.080;15.410;2023-05-07T05:55:41;14.40;99.90
34095;DHT22;20372;47.080;15.410;2023-05-07T05:58:07;14.40;99.90
34095;DHT22;20372;47.080;15.410;2023-05-07T06:00:32;14.40;99.90
34095;DHT22;20372;47.080;15.410;2023-05-07T06:02:58;14.90;99.90
34095;DHT22;20372;47.080;15.410;2023-05-07T06:05:24;14.90;99.90
34095;DHT22;20372;47.080;15.410;2023-05-07T06:07:49;15.10;99.90
34095;DHT22;20372;47.080;15.410;2023-05-07T06:10:15;15.60;99.90
34095;DHT22;20372;47.080;15.410;2023-05-07T06:12:40;15.50;99.90
34095;DHT22;20372;47.080;15.410;2023-05-07T06:15:06;16.50;99.90
34095;DHT22;20372;47.080;15.410;2023-05-07T06:17:32;17.10;99.90
34095;DHT22;20372;47.080;15.410;2023-05-07T06:19:57;17.30;99.90
34095;DHT22;20372;47.080;15.410;2023-05-07T06:22:23;18.10;99.90
34095;DHT22;20372;47.080;15.410;2023-05-07T06:24:48;18.30;99.90
34095;DHT22;20372;47.080;15.410;2023-05-07T06:27:14;19.30;99.90
34095;DHT22;20372;47.080;15.410;2023-05-07T06:29:40;19.60;99.90
34095;DHT22;20372;47.080;15.410;2023-05-07T06:32:06;20.00;99.90
34095;DHT22;20372;47.080;15.410;2023-05-07T06:34:31;20.60;99.90
34095;DHT22;20372;47.080;15.410;2023-05-07T06:36:57;20.20;99.90
34095;DHT22;20372;47.080;15.410;2023-05-07T06:39:23;19.70;99.90
34095;DHT22;20372;47.080;15.410;2023-05-07T06:41:49;19.50;99.90
34095;DHT22;20372;47.080;15.410;2023-05-07T06:44:14;20.30;99.50
34095;DHT22;20372;47.080;15.410;2023-05-07T06:46:40;21.10;97.90
34095;DHT22;20372;47.080;15.410;2023-05-07T06:49:06;21.20;97.30
34095;DHT22;20372;47.080;15.410;2023-05-07T06:51:31;21.80;96.30
34095;DHT22;20372;47.080;15.410;2023-05-07T06:53:57;21.80;96.50
34095;DHT22;20372;47.080;15.410;2023-05-07T06:56:23;22.10;94.20
34095;DHT22;20372;47.080;15.410;2023-05-07T06:58:48;22.40;94.30
34095;DHT22;20372;47.080;15.410;2023-05-07T07:01:14;23.00;94.00
34095;DHT22;20372;47.080;15.410;2023-05-07T07:03:40;22.30;93.70
34095;DHT22;20372;47.080;15.410;2023-05-07T07:06:06;21.70;94.40
34095;DHT22;20372;47.080;15.410;2023-05-07T07:08:31;21.70;95.50
34095;DHT22;20372;47.080;15.410;2023-05-07T07:10:57;22.40;94.60
34095;DHT22;20372;47.080;15.410;2023-05-07T07:13:22;22.50;93.60
34095;DHT22;20372;47.080;15.410;2023-05-07T07:15:48;21.70;95.50
34095;DHT22;20372;47.080;15.410;2023-05-07T07:18:14;22.50;95.80
34095;DHT22;20372;47.080;15.410;2023-05-07T07:20:39;22.00;93.80
34095;DHT22;20372;47.080;15.410;2023-05-07T07:23:05;21.40;94.40
34095;DHT22;20372;47.080;15.410;2023-05-07T07:25:31;21.40;95.10
34095;DHT22;20372;47.080;15.410;2023-05-07T07:27:56;20.80;95.20
34095;DHT22;20372;47.080;15.410;2023-05-07T07:30:22;21.00;98.70
34095;DHT22;20372;47.080;15.410;2023-05-07T07:32:48;21.70;95.40
34095;DHT22;20372;47.080;15.410;2023-05-07T07:35:13;21.50;95.20
34095;DHT22;20372;47.080;15.410;2023-05-07T07:37:39;20.40;96.80
34095;DHT22;20372;47.080;15.410;2023-05-07T07:40:05;20.40;96.80
34095;DHT22;20372;47.080;15.410;2023-05-07T07:42:31;20.90;96.50
34095;DHT22;20372;47.080;15.410;2023-05-07T07:44:57;21.70;95.80
34095;DHT22;20372;47.080;15.410;2023-05-07T07:47:22;22.00;95.10
34095;DHT22;20372;47.080;15.410;2023-05-07T07:49:48;22.00;94.80
34095;DHT22;20372;47.080;15.410;2023-05-07T07:52:14;22.40;94.60
34095;DHT22;20372;47.080;15.410;2023-05-07T07:54:40;21.70;95.50
34095;DHT22;20372;47.080;15.410;2023-05-07T07:57:05;22.80;95.30
34095;DHT22;20372;47.080;15.410;2023-05-07T07:59:31;22.20;95.40
34095;DHT22;20372;47.080;15.410;2023-05-07T08:01:56;22.80;94.60
34095;DHT22;20372;47.080;15.410;2023-05-07T08:04:22;23.40;93.40
34095;DHT22;20372;47.080;15.410;2023-05-07T08:06:48;23.60;93.00
34095;DHT22;20372;47.080;15.410;2023-05-07T08:09:13;22.20;93.50
34095;DHT22;20372;47.080;15.410;2023-05-07T08:11:39;23.30;93.40
34095;DHT22;20372;47.080;15.410;2023-05-07T08:14:05;22.70;93.80
34095;DHT22;20372;47.080;15.410;2023-05-07T08:16:30;20.70;96.80
34095;DHT22;20372;47.080;15.410;2023-05-07T08:18:56;20.80;97.50
34095;DHT22;20372;47.080;15.410;2023-05-07T08:21:22;21.20;96.50
34095;DHT22;20372;47.080;15.410;2023-05-07T08:23:48;20.90;97.00
34095;DHT22;20372;47.080;15.410;2023-05-07T08:26:13;22.00;95.70
34095;DHT22;20372;47.080;15.410;2023-05-07T08:28:39;21.60;96.30
34095;DHT22;20372;47.080;15.410;2023-05-07T08:31:05;21.50;95.20
34095;DHT22;20372;47.080;15.410;2023-05-07T08:33:30;22.80;94.90
34095;DHT22;20372;47.080;15.410;2023-05-07T08:35:56;24.10;93.50
34095;DHT22;20372;47.080;15.410;2023-05-07T08:38:22;23.40;92.60
34095;DHT22;20372;47.080;15.410;2023-05-07T08:40:47;23.00;91.70
34095;DHT22;20372;47.080;15.410;2023-05-07T08:43:13;21.40;93.80
34095;DHT22;20372;47.080;15.410;2023-05-07T08:45:40;23.10;94.60
34095;DHT22;20372;47.080;15.410;2023-05-07T08:48:10;23.90;91.50
34095;DHT22;20372;47.080;15.410;2023-05-07T08:50:39;24.80;92.60
34095;DHT22;20372;47.080;15.410;2023-05-07T08:53:05;25.30;91.20
34095;DHT22;20372;47.080;15.410;2023-05-07T08:55:31;23.90;91.20
34095;DHT22;20372;47.080;15.410;2023-05-07T08:57:56;21.20;94.90
34095;DHT22;20372;47.080;15.410;2023-05-07T09:00:22;22.80;94.60
34095;DHT22;20372;47.080;15.410;2023-05-07T09:02:48;23.60;92.10
34095;DHT22;20372;47.080;15.410;2023-05-07T09:05:13;21.80;93.80
34095;DHT22;20372;47.080;15.410;2023-05-07T09:07:39;20.10;97.00
34095;DHT22;20372;47.080;15.410;2023-05-07T09:10:05;20.20;96.90
34095;DHT22;20372;47.080;15.410;2023-05-07T09:12:31;20.70;97.70
34095;DHT22;20372;47.080;15.410;2023-05-07T09:14:57;20.70;96.80
34095;DHT22;20372;47.080;15.410;2023-05-07T09:17:23;20.50;97.10
34095;DHT22;20372;47.080;15.410;2023-05-07T09:19:49;20.40;97.20
34095;DHT22;20372;47.080;15.410;2023-05-07T09:22:15;22.20;94.80
34095;DHT22;20372;47.080;15.410;2023-05-07T09:24:40;21.80;93.80
34095;DHT22;20372;47.080;15.410;2023-05-07T09:27:12;21.20;94.80
34095;DHT22;20372;47.080;15.410;2023-05-07T09:29:38;20.80;95.70
34095;DHT22;20372;47.080;15.410;2023-05-07T09:32:07;21.00;95.00
34095;DHT22;20372;47.080;15.410;2023-05-07T09:34:33;21.30;95.10
34095;DHT22;20372;47.080;15.410;2023-05-07T09:37:03;22.80;94.60
34095;DHT22;20372;47.080;15.410;2023-05-07T09:42:24;22.20;92.30
34095;DHT22;20372;47.080;15.410;2023-05-07T09:44:51;22.30;93.20
34095;DHT22;20372;47.080;15.410;2023-05-07T09:47:22;22.70;92.20
34095;DHT22;20372;47.080;15.410;2023-05-07T09:49:48;22.30;92.30
34095;DHT22;20372;47.080;15.410;2023-05-07T09:52:14;22.80;91.70
34095;DHT22;20372;47.080;15.410;2023-05-07T09:54:40;22.40;92.60
34095;DHT22;20372;47.080;15.410;2023-05-07T09:57:09;22.80;91.80
34095;DHT22;20372;47.080;15.410;2023-05-07T09:59:36;22.60;92.10
34095;DHT22;20372;47.080;15.410;2023-05-07T10:02:03;22.60;93.60
34095;DHT22;20372;47.080;15.410;2023-05-07T10:04:29;22.70;94.30
34095;DHT22;20372;47.080;15.410;2023-05-07T10:06:56;23.10;91.50
34095;DHT22;20372;47.080;15.410;2023-05-07T10:09:22;22.50;92.50
34095;DHT22;20372;47.080;15.410;2023-05-07T10:11:48;22.90;91.60
34095;DHT22;20372;47.080;15.410;2023-05-07T10:14:14;21.70;92.40
34095;DHT22;20372;47.080;15.410;2023-05-07T10:16:40;21.50;94.50
34095;DHT22;20372;47.080;15.410;2023-05-07T10:19:06;21.70;93.50
34095;DHT22;20372;47.080;15.410;2023-05-07T10:21:36;21.20;94.20
34095;DHT22;20372;47.080;15.410;2023-05-07T10:24:09;21.50;93.80
34095;DHT22;20372;47.080;15.410;2023-05-07T10:26:42;21.60;93.50
34095;DHT22;20372;47.080;15.410;2023-05-07T10:29:53;21.60;93.10
34095;DHT22;20372;47.080;15.410;2023-05-07T10:34:28;22.40;92.10
34095;DHT22;20372;47.080;15.410;2023-05-07T10:36:54;22.50;91.50
34095;DHT22;20372;47.080;15.410;2023-05-07T10:39:21;21.60;93.20
34095;DHT22;20372;47.080;15.410;2023-05-07T10:41:48;21.80;93.30
34095;DHT22;20372;47.080;15.410;2023-05-07T10:44:27;21.60;92.20
34095;DHT22;20372;47.080;15.410;2023-05-07T10:49:31;22.20;92.50
34095;DHT22;20372;47.080;15.410;2023-05-07T10:54:44;21.80;92.40
34095;DHT22;20372;47.080;15.410;2023-05-07T10:59:53;21.50;92.80
34095;DHT22;20372;47.080;15.410;2023-05-07T11:02:19;21.30;92.30
34095;DHT22;20372;47.080;15.410;2023-05-07T11:04:45;21.20;92.40
34095;DHT22;20372;47.080;15.410;2023-05-07T11:12:16;21.10;91.70
34095;DHT22;20372;47.080;15.410;2023-05-07T11:14:42;21.20;92.10
34095;DHT22;20372;47.080;15.410;2023-05-07T11:17:09;22.20;91.00
34095;DHT22;20372;47.080;15.410;2023-05-07T11:19:54;23.10;90.00
34095;DHT22;20372;47.080;15.410;2023-05-07T11:25:05;22.40;90.40
34095;DHT22;20372;47.080;15.410;2023-05-07T11:27:31;22.00;91.10
34095;DHT22;20372;47.080;15.410;2023-05-07T11:29:57;21.70;91.40
34095;DHT22;20372;47.080;15.410;2023-05-07T11:32:27;21.50;91.70
34095;DHT22;20372;47.080;15.410;2023-05-07T11:34:57;21.40;92.00
34095;DHT22;20372;47.080;15.410;2023-05-07T11:37:24;21.60;91.60
34095;DHT22;20372;47.080;15.410;2023-05-07T11:39:50;21.80;91.50
34095;DHT22;20372;47.080;15.410;2023-05-07T11:42:30;22.10;90.60
34095;DHT22;20372;47.080;15.410;2023-05-07T11:44:55;21.60;90.90
34095;DHT22;20372;47.080;15.410;2023-05-07T11:47:21;21.70;91.00
34095;DHT22;20372;47.080;15.410;2023-05-07T11:49:50;21.90;90.70
34095;DHT22;20372;47.080;15.410;2023-05-07T11:52:16;22.60;90.40
34095;DHT22;20372;47.080;15.410;2023-05-07T11:54:53;22.40;89.70
34095;DHT22;20372;47.080;15.410;2023-05-07T11:57:19;21.70;90.80
34095;DHT22;20372;47.080;15.410;2023-05-07T11:59:45;21.90;90.50
34095;DHT22;20372;47.080;15.410;2023-05-07T12:02:16;22.00;90.30
34095;DHT22;20372;47.080;15.410;2023-05-07T12:04:42;21.80;90.30
34095;DHT22;20372;47.080;15.410;2023-05-07T12:07:11;21.60;90.80
34095;DHT22;20372;47.080;15.410;2023-05-07T12:09:37;21.60;90.70
34095;DHT22;20372;47.080;15.410;2023-05-07T12:12:03;21.60;90.70
34095;DHT22;20372;47.080;15.410;2023-05-07T12:14:29;21.80;90.80
34095;DHT22;20372;47.080;15.410;2023-05-07T12:16:54;22.00;90.60
34095;DHT22;20372;47.080;15.410;2023-05-07T12:19:20;22.20;90.10
34095;DHT22;20372;47.080;15.410;2023-05-07T12:21:46;22.10;90.10
34095;DHT22;20372;47.080;15.410;2023-05-07T12:24:11;22.10;89.90
34095;DHT22;20372;47.080;15.410;2023-05-07T12:26:40;21.90;89.30
34095;DHT22;20372;47.080;15.410;2023-05-07T12:29:06;21.90;90.40
34095;DHT22;20372;47.080;15.410;2023-05-07T12:31:31;22.10;90.90
34095;DHT22;20372;47.080;15.410;2023-05-07T12:33:57;21.80;90.40
34095;DHT22;20372;47.080;15.410;2023-05-07T12:36:23;21.40;90.80
34095;DHT22;20372;47.080;15.410;2023-05-07T12:38:49;21.60;91.30
34095;DHT22;20372;47.080;15.410;2023-05-07T12:41:15;21.60;90.80
34095;DHT22;20372;47.080;15.410;2023-05-07T12:43:44;21.50;90.60
34095;DHT22;20372;47.080;15.410;2023-05-07T12:46:11;21.50;90.90
34095;DHT22;20372;47.080;15.410;2023-05-07T12:48:43;21.40;90.90
34095;DHT22;20372;47.080;15.410;2023-05-07T12:51:09;21.30;91.00
34095;DHT22;20372;47.080;15.410;2023-05-07T12:53:40;21.20;91.10
34095;DHT22;20372;47.080;15.410;2023-05-07T12:56:09;21.00;91.30
34095;DHT22;20372;47.080;15.410;2023-05-07T12:58:35;20.90;92.20
34095;DHT22;20372;47.080;15.410;2023-05-07T13:01:03;20.90;92.40
34095;DHT22;20372;47.080;15.410;2023-05-07T13:03:30;20.70;93.20
34095;DHT22;20372;47.080;15.410;2023-05-07T13:05:57;20.60;93.10
34095;DHT22;20372;47.080;15.410;2023-05-07T13:08:27;20.50;94.20
34095;DHT22;20372;47.080;15.410;2023-05-07T13:10:53;20.20;96.70
34095;DHT22;20372;47.080;15.410;2023-05-07T13:13:19;20.10;96.70
34095;DHT22;20372;47.080;15.410;2023-05-07T13:15:46;19.70;98.70
34095;DHT22;20372;47.080;15.410;2023-05-07T13:18:11;19.30;99.90
34095;DHT22;20372;47.080;15.410;2023-05-07T13:20:37;19.10;99.90
34095;DHT22;20372;47.080;15.410;2023-05-07T13:23:03;18.80;99.90
34095;DHT22;20372;47.080;15.410;2023-05-07T13:25:30;18.30;99.90
34095;DHT22;20372;47.080;15.410;2023-05-07T13:27:59;18.10;99.90
34095;DHT22;20372;47.080;15.410;2023-05-07T13:30:24;17.80;99.90
34095;DHT22;20372;47.080;15.410;2023-05-07T13:32:52;17.60;99.90
34095;DHT22;20372;47.080;15.410;2023-05-07T13:35:17;17.40;99.90
34095;DHT22;20372;47.080;15.410;2023-05-07T13:37:43;17.00;99.90
34095;DHT22;20372;47.080;15.410;2023-05-07T13:40:08;17.00;99.90
34095;DHT22;20372;47.080;15.410;2023-05-07T13:42:34;17.00;99.90
34095;DHT22;20372;47.080;15.410;2023-05-07T13:45:00;17.10;99.90
34095;DHT22;20372;47.080;15.410;2023-05-07T13:47:26;17.10;99.90
34095;DHT22;20372;47.080;15.410;2023-05-07T13:49:52;16.80;99.90
34095;DHT22;20372;47.080;15.410;2023-05-07T13:52:17;16.80;99.90
34095;DHT22;20372;47.080;15.410;2023-05-07T13:54:43;16.70;99.90
34095;DHT22;20372;47.080;15.410;2023-05-07T13:57:08;16.70;99.90
34095;DHT22;20372;47.080;15.410;2023-05-07T13:59:34;16.70;99.90
34095;DHT22;20372;47.080;15.410;2023-05-07T14:02:00;16.70;99.90
34095;DHT22;20372;47.080;15.410;2023-05-07T14:04:26;16.40;99.90
34095;DHT22;20372;47.080;15.410;2023-05-07T14:06:51;16.20;99.90
34095;DHT22;20372;47.080;15.410;2023-05-07T14:09:17;15.80;99.90
34095;DHT22;20372;47.080;15.410;2023-05-07T14:11:42;15.60;99.90
34095;DHT22;20372;47.080;15.410;2023-05-07T14:14:08;15.60;99.90
34095;DHT22;20372;47.080;15.410;2023-05-07T14:16:36;15.60;99.90
34095;DHT22;20372;47.080;15.410;2023-05-07T14:19:02;15.70;99.90
34095;DHT22;20372;47.080;15.410;2023-05-07T14:21:28;15.70;99.90
34095;DHT22;20372;47.080;15.410;2023-05-07T14:23:53;15.80;99.90
34095;DHT22;20372;47.080;15.410;2023-05-07T14:26:19;15.80;99.90
34095;DHT22;20372;47.080;15.410;2023-05-07T14:28:46;15.90;99.90
34095;DHT22;20372;47.080;15.410;2023-05-07T14:31:12;15.90;99.90
34095;DHT22;20372;47.080;15.410;2023-05-07T14:33:37;16.00;99.90
34095;DHT22;20372;47.080;15.410;2023-05-07T14:36:03;16.30;99.90
34095;DHT22;20372;47.080;15.410;2023-05-07T14:38:29;16.60;99.90
34095;DHT22;20372;47.080;15.410;2023-05-07T14:40:55;16.80;99.90
34095;DHT22;20372;47.080;15.410;2023-05-07T14:43:21;16.70;99.90
34095;DHT22;20372;47.080;15.410;2023-05-07T14:45:47;16.70;99.90
34095;DHT22;20372;47.080;15.410;2023-05-07T14:48:13;16.70;99.90
34095;DHT22;20372;47.080;15.410;2023-05-07T14:50:43;16.50;99.90
34095;DHT22;20372;47.080;15.410;2023-05-07T14:53:09;16.50;99.90
34095;DHT22;20372;47.080;15.410;2023-05-07T14:55:34;16.50;99.90
34095;DHT22;20372;47.080;15.410;2023-05-07T14:58:00;16.20;99.90
34095;DHT22;20372;47.080;15.410;2023-05-07T15:00:26;16.10;99.90
34095;DHT22;20372;47.080;15.410;2023-05-07T15:02:51;16.10;99.90
34095;DHT22;20372;47.080;15.410;2023-05-07T15:05:17;16.20;99.90
34095;DHT22;20372;47.080;15.410;2023-05-07T15:07:44;16.40;99.90
34095;DHT22;20372;47.080;15.410;2023-05-07T15:10:10;16.20;99.90
34095;DHT22;20372;47.080;15.410;2023-05-07T15:12:35;16.20;99.90
34095;DHT22;20372;47.080;15.410;2023-05-07T15:15:01;16.20;99.90
34095;DHT22;20372;47.080;15.410;2023-05-07T15:17:27;16.20;99.90
34095;DHT22;20372;47.080;15.410;2023-05-07T15:19:52;16.20;99.90
34095;DHT22;20372;47.080;15.410;2023-05-07T15:22:19;16.10;99.90
34095;DHT22;20372;47.080;15.410;2023-05-07T15:24:46;16.40;99.90
34095;DHT22;20372;47.080;15.410;2023-05-07T15:27:12;16.60;99.90
34095;DHT22;20372;47.080;15.410;2023-05-07T15:29:37;16.90;99.90